Terminal Aerodrome Forecast
Issued by NWS

Home | Current Version | Previous Version | Text Only | Print | Product List | Glossary On
Versions: 1 2 3 4 5 6 7 8 9 10
000
FTUS45 KREV 281700
TAFMMH
TAF
KMMH 281737Z 2818/2918 VRB04KT P6SM FEW180
     FM282100 26010G18KT P6SM FEW060
     FM290400 29008KT P6SM SKC=

USA.gov is the U.S. government's official web portal to all federal, state and local government web resources and services.